KIKK/IKK METAR and TAF weather

Enter ICAO airport designator
Station Type Date Time Source
KIKK METAR 2019/10/23 20:15 UTC NOAA

KIKK 232015Z AUTO 24011KT 10SM OVC110 19/02 A2992 RMK AO2 T01870019


Station Type Date Time Source
KIKK Decoded METAR 2019/10/23 20:15 UTC NOAA

Kankakee, Greater Kankakee Airport, IL, United States (KIKK) 41-04-17N 087-50-47W
Oct 23, 2019 - 04:15 PM EDT / 2019.10.23 2015 UTC
Wind: from the WSW (240 degrees) at 13 MPH (11 KT):0
Visibility: 10 mile(s):0
Sky conditions: overcast
Temperature: 65.7 F (18.7 C)
Dew Point: 35.4 F (1.9 C)
Relative Humidity: 32%
Pressure (altimeter): 29.92 in. Hg (1013 hPa)
ob: KIKK 232015Z AUTO 24011KT 10SM OVC110 19/02 A2992 RMK AO2 T01870019
cycle: 20

Station Type Date Time Source
KIKK TAF UTC NOAA

Error!

Example: see airport list